SBI174 ULLI-UUEE
Flight info
| Callsign | SBI174 |
|---|---|
| Flight time | N/A |
| Altitude | 35000 |
| Route | SUGIN1C SUGIN T873 NIRGI T73 NAMIN NAMIN3E |
| Aircraft | B738/M-SDE2E3FGHIRWXY/LB1 |
Departure
| Time | N/A |
|---|---|
| Airport | Pulkovo Airport (ULLI) |
Arrival
| Time | 2026-05-04 10:09 |
|---|---|
| Airport | Sheremetyevo International Airport (UUEE) |
| Time | Latitude | Longitude | Altitude | Speed | Heading |
|---|---|---|---|---|---|
| 2026-05-04 09:29 | 58.93822 | 33.24812 | 34695 ft | 474 kts | 140° |
| 2026-05-04 09:29 | 58.92249 | 33.27748 | 34825 ft | 476 kts | 140° |
| 2026-05-04 09:30 | 58.87431 | 33.36708 | 34799 ft | 481 kts | 140° |
| 2026-05-04 09:30 | 58.82626 | 33.45619 | 34708 ft | 476 kts | 140° |
| 2026-05-04 09:31 | 58.77863 | 33.54418 | 34798 ft | 474 kts | 140° |
| 2026-05-04 09:31 | 58.73083 | 33.63211 | 34807 ft | 474 kts | 140° |
| 2026-05-04 09:32 | 58.68305 | 33.71966 | 34807 ft | 475 kts | 140° |
| 2026-05-04 09:34 | 58.49038 | 34.06928 | 34818 ft | 477 kts | 140° |
| 2026-05-04 09:34 | 58.44184 | 34.15649 | 34808 ft | 478 kts | 140° |
| 2026-05-04 09:35 | 58.39326 | 34.24344 | 34817 ft | 478 kts | 140° |
| 2026-05-04 09:35 | 58.34465 | 34.33009 | 34810 ft | 478 kts | 139° |
| 2026-05-04 09:37 | 58.14825 | 34.67016 | 34809 ft | 477 kts | 143° |
| 2026-05-04 09:38 | 58.09691 | 34.74960 | 34849 ft | 477 kts | 143° |
| 2026-05-04 09:38 | 58.04564 | 34.82935 | 34827 ft | 478 kts | 143° |
| 2026-05-04 09:39 | 57.99453 | 34.90939 | 34845 ft | 477 kts | 143° |
| 2026-05-04 09:39 | 57.94340 | 34.98938 | 34840 ft | 477 kts | 143° |
| 2026-05-04 09:40 | 57.89227 | 35.06905 | 34835 ft | 476 kts | 142° |
| 2026-05-04 09:40 | 57.84124 | 35.14824 | 34837 ft | 475 kts | 143° |
| 2026-05-04 09:41 | 57.81572 | 35.18771 | 34662 ft | 477 kts | 143° |
| 2026-05-04 09:42 | 57.64040 | 35.45699 | 31579 ft | 451 kts | 143° |
| 2026-05-04 09:43 | 57.61619 | 35.49392 | 31194 ft | 447 kts | 143° |
| 2026-05-04 09:43 | 57.59219 | 35.53044 | 30793 ft | 444 kts | 143° |
| 2026-05-04 09:43 | 57.56838 | 35.56671 | 30447 ft | 439 kts | 143° |
| 2026-05-04 09:43 | 57.54499 | 35.60231 | 30040 ft | 437 kts | 143° |
| 2026-05-04 09:44 | 57.52152 | 35.63800 | 29609 ft | 434 kts | 143° |
| 2026-05-04 09:44 | 57.49826 | 35.67334 | 29180 ft | 430 kts | 143° |
| 2026-05-04 09:44 | 57.47522 | 35.70827 | 28787 ft | 425 kts | 143° |
| 2026-05-04 09:46 | 57.31916 | 35.94325 | 26013 ft | 401 kts | 143° |
| 2026-05-04 09:46 | 57.29757 | 35.97555 | 25610 ft | 399 kts | 143° |
| 2026-05-04 09:46 | 57.27864 | 36.00382 | 25281 ft | 396 kts | 143° |
| 2026-05-04 09:47 | 57.25727 | 36.03570 | 24895 ft | 394 kts | 143° |
| 2026-05-04 09:47 | 57.25090 | 36.04519 | 24767 ft | 393 kts | 143° |
| 2026-05-04 09:49 | 57.20971 | 36.10647 | 24045 ft | 388 kts | 143° |
| 2026-05-04 09:49 | 57.20028 | 36.12047 | 23887 ft | 386 kts | 143° |
| 2026-05-04 09:49 | 57.19999 | 36.12090 | 23886 ft | 386 kts | 143° |
| 2026-05-04 09:51 | 57.12408 | 36.23329 | 22410 ft | 378 kts | 143° |
| 2026-05-04 09:51 | 57.10364 | 36.26347 | 22041 ft | 375 kts | 143° |
| 2026-05-04 09:51 | 57.08335 | 36.29339 | 21668 ft | 372 kts | 143° |
| 2026-05-04 09:51 | 57.06321 | 36.32302 | 21287 ft | 369 kts | 143° |
| 2026-05-04 09:52 | 57.04321 | 36.35240 | 20925 ft | 367 kts | 143° |
| 2026-05-04 09:52 | 57.02328 | 36.38156 | 20599 ft | 363 kts | 144° |
| 2026-05-04 09:52 | 57.00357 | 36.41021 | 20336 ft | 358 kts | 144° |
| 2026-05-04 09:52 | 56.98400 | 36.43855 | 19923 ft | 358 kts | 144° |
| 2026-05-04 09:53 | 56.96452 | 36.46675 | 19590 ft | 356 kts | 144° |
| 2026-05-04 09:53 | 56.94513 | 36.49481 | 19219 ft | 355 kts | 144° |
| 2026-05-04 09:53 | 56.92579 | 36.52277 | 18851 ft | 354 kts | 144° |
| 2026-05-04 09:53 | 56.90652 | 36.55059 | 18499 ft | 352 kts | 144° |
| 2026-05-04 09:54 | 56.88726 | 36.57834 | 18099 ft | 353 kts | 144° |
| 2026-05-04 09:54 | 56.86802 | 36.60604 | 17707 ft | 351 kts | 144° |
| 2026-05-04 09:54 | 56.84888 | 36.63358 | 17324 ft | 349 kts | 144° |
| 2026-05-04 09:54 | 56.82982 | 36.66097 | 16956 ft | 348 kts | 144° |
| 2026-05-04 09:55 | 56.81086 | 36.68817 | 16583 ft | 346 kts | 144° |
| 2026-05-04 09:55 | 56.79201 | 36.71520 | 16233 ft | 344 kts | 144° |
| 2026-05-04 09:55 | 56.77323 | 36.74210 | 15880 ft | 342 kts | 144° |
| 2026-05-04 09:55 | 56.75458 | 36.76879 | 15531 ft | 340 kts | 144° |
| 2026-05-04 09:56 | 56.73599 | 36.79533 | 15181 ft | 339 kts | 144° |
| 2026-05-04 09:56 | 56.71752 | 36.82170 | 14845 ft | 337 kts | 143° |
| 2026-05-04 09:56 | 56.70001 | 36.85033 | 14508 ft | 338 kts | 137° |
| 2026-05-04 09:56 | 56.68346 | 36.88071 | 14213 ft | 339 kts | 136° |
| 2026-05-04 09:57 | 56.66695 | 36.91164 | 13855 ft | 342 kts | 136° |
| 2026-05-04 09:57 | 56.65036 | 36.94254 | 13505 ft | 340 kts | 136° |
| 2026-05-04 09:57 | 56.63354 | 36.97349 | 13131 ft | 338 kts | 137° |
| 2026-05-04 09:57 | 56.61700 | 37.00364 | 12767 ft | 336 kts | 137° |
| 2026-05-04 09:58 | 56.60054 | 37.03344 | 12448 ft | 333 kts | 137° |
| 2026-05-04 09:58 | 56.58417 | 37.06297 | 12123 ft | 331 kts | 137° |
| 2026-05-04 09:58 | 56.56792 | 37.09222 | 11793 ft | 328 kts | 137° |
| 2026-05-04 10:00 | 56.43702 | 37.21765 | 9814 ft | 295 kts | 172° |
| 2026-05-04 10:00 | 56.41701 | 37.22551 | 9372 ft | 298 kts | 172° |
| 2026-05-04 10:02 | 56.28542 | 37.27853 | 7452 ft | 283 kts | 172° |
| 2026-05-04 10:04 | 56.15514 | 37.34685 | 5441 ft | 285 kts | 141° |
| 2026-05-04 10:04 | 56.14175 | 37.37256 | 5304 ft | 280 kts | 134° |
| 2026-05-04 10:04 | 56.12873 | 37.39872 | 4949 ft | 282 kts | 135° |
| 2026-05-04 10:04 | 56.11568 | 37.42485 | 4721 ft | 281 kts | 135° |
| 2026-05-04 10:05 | 56.10260 | 37.45091 | 4395 ft | 281 kts | 135° |
| 2026-05-04 10:05 | 56.08954 | 37.47682 | 4127 ft | 280 kts | 135° |
| 2026-05-04 10:05 | 56.07650 | 37.50259 | 3799 ft | 279 kts | 135° |
| 2026-05-04 10:05 | 56.06352 | 37.52818 | 3555 ft | 276 kts | 136° |
| 2026-05-04 10:06 | 56.05086 | 37.55312 | 3492 ft | 262 kts | 136° |
| 2026-05-04 10:06 | 56.03910 | 37.57623 | 3474 ft | 241 kts | 136° |
| 2026-05-04 10:06 | 56.02616 | 37.59202 | 3355 ft | 213 kts | 169° |
| 2026-05-04 10:08 | 55.98381 | 37.49989 | 1280 ft | 131 kts | 258° |
| 2026-05-04 10:08 | 55.98170 | 37.48353 | 1175 ft | 134 kts | 258° |
| 2026-05-04 10:08 | 55.97931 | 37.46737 | 1000 ft | 142 kts | 250° |
| 2026-05-04 10:08 | 55.97661 | 37.45032 | 770 ft | 138 kts | 258° |
| 2026-05-04 10:09 | 55.97434 | 37.43496 | 630 ft | 124 kts | 255° |
| 2026-05-04 10:09 | 55.97238 | 37.42184 | 632 ft | 86 kts | 255° |
| 2026-05-04 10:09 | 55.97128 | 37.41716 | 632 ft | 12 kts | 162° |
| 2026-05-04 10:09 | 55.97099 | 37.41884 | 634 ft | 18 kts | 102° |
| 2026-05-04 10:10 | 55.97062 | 37.42066 | 631 ft | 8 kts | 157° |
| 2026-05-04 10:10 | 55.97007 | 37.42035 | 629 ft | 10 kts | 250° |
| 2026-05-04 10:10 | 55.96965 | 37.41923 | 635 ft | 13 kts | 199° |
| 2026-05-04 10:10 | 55.96894 | 37.41835 | 636 ft | 15 kts | 255° |
| 2026-05-04 10:11 | 55.96864 | 37.41640 | 632 ft | 18 kts | 255° |
| 2026-05-04 10:11 | 55.96829 | 37.41408 | 631 ft | 21 kts | 255° |
| 2026-05-04 10:11 | 55.96789 | 37.41142 | 634 ft | 23 kts | 251° |
| 2026-05-04 10:11 | 55.96650 | 37.41108 | 636 ft | 22 kts | 164° |
| 2026-05-04 10:12 | 55.96593 | 37.41257 | 631 ft | 12 kts | 102° |
| 2026-05-04 10:12 | 55.96591 | 37.41278 | 631 ft | 2 kts | 97° |
| 2026-05-04 10:12 | 55.96591 | 37.41279 | 631 ft | 0 kts | 97° |